createdAt,value
2023-04-13T00:02:29.315Z,8.58
2023-04-13T00:07:34.250Z,8.37
2023-04-13T00:12:38.215Z,8.31
2023-04-13T00:17:43.388Z,8.23
2023-04-13T00:22:48.169Z,7.95
2023-04-13T00:27:53.194Z,7.95
2023-04-13T00:32:55.954Z,8.04
2023-04-13T00:37:59.017Z,8.20
2023-04-13T00:43:02.569Z,8.00
2023-04-13T00:48:07.931Z,7.77
2023-04-13T00:53:13.965Z,7.66
2023-04-13T00:58:17.131Z,7.74
2023-04-13T01:03:21.292Z,7.50
2023-04-13T01:08:36.350Z,7.45
2023-04-13T01:13:46.974Z,7.44
2023-04-13T01:18:53.557Z,7.44
2023-04-13T01:24:25.783Z,7.42
2023-04-13T01:29:28.808Z,7.40
2023-04-13T01:34:31.876Z,7.48
2023-04-13T01:39:36.514Z,7.45
2023-04-13T01:44:49.590Z,7.39
2023-04-13T01:50:04.219Z,7.40
2023-04-13T01:55:24.563Z,7.24
2023-04-13T02:00:36.285Z,7.31
2023-04-13T02:05:42.849Z,7.16
2023-04-13T02:10:47.020Z,7.20
2023-04-13T02:15:50.664Z,7.37
2023-04-13T02:21:03.177Z,7.57
2023-04-13T02:26:09.372Z,7.33
2023-04-13T02:31:17.267Z,7.42
2023-04-13T02:36:22.687Z,7.92
2023-04-13T02:41:30.280Z,7.84
2023-04-13T02:46:33.554Z,8.01
2023-04-13T02:51:41.979Z,7.59
2023-04-13T02:56:46.281Z,7.54
2023-04-13T03:01:50.116Z,7.50
2023-04-13T03:06:58.661Z,7.34
2023-04-13T03:12:04.901Z,7.32
2023-04-13T03:17:08.442Z,7.21
2023-04-13T03:22:14.877Z,7.33
2023-04-13T03:27:22.935Z,7.17
2023-04-13T03:32:27.733Z,7.17
2023-04-13T03:37:43.011Z,7.19
2023-04-13T03:42:54.405Z,7.21
2023-04-13T03:47:59.934Z,7.34
2023-04-13T03:53:03.583Z,7.33
2023-04-13T03:58:07.504Z,7.62
2023-04-13T04:03:11.535Z,7.52
2023-04-13T04:08:28.022Z,7.38
2023-04-13T04:13:34.697Z,7.55
2023-04-13T04:18:43.170Z,7.38
2023-04-13T04:23:49.910Z,7.26
2023-04-13T04:28:52.818Z,7.29
2023-04-13T04:33:58.288Z,7.22
2023-04-13T04:39:02.941Z,7.10
2023-04-13T04:44:12.012Z,7.14
2023-04-13T04:49:18.832Z,7.15
2023-04-13T04:54:25.104Z,7.03
2023-04-13T04:59:27.982Z,7.08
2023-04-13T05:04:39.031Z,7.22
2023-04-13T05:09:42.812Z,7.30
2023-04-13T05:14:48.400Z,7.26
2023-04-13T05:19:53.339Z,7.26
2023-04-13T05:25:00.197Z,7.19
2023-04-13T05:30:05.598Z,7.20
2023-04-13T05:35:12.267Z,7.22
2023-04-13T05:40:15.350Z,7.20
2023-04-13T05:45:18.588Z,7.27
2023-04-13T05:51:00.351Z,7.16
2023-04-13T05:56:08.246Z,7.34
2023-04-13T06:01:14.351Z,7.30
2023-04-13T06:06:17.864Z,7.39
2023-04-13T06:11:21.856Z,7.44
2023-04-13T06:16:25.660Z,7.52
2023-04-13T06:21:30.357Z,7.62
2023-04-13T06:26:34.075Z,7.52
2023-04-13T06:31:37.759Z,7.73
2023-04-13T06:36:47.264Z,7.94
2023-04-13T06:41:52.348Z,7.84
2023-04-13T06:47:17.438Z,7.94
2023-04-13T06:52:21.487Z,8.50
2023-04-13T06:57:24.425Z,8.64
2023-04-13T07:02:27.620Z,8.70
2023-04-13T07:07:32.898Z,8.54
2023-04-13T07:12:36.368Z,8.47
2023-04-13T07:17:39.487Z,8.61
2023-04-13T07:22:42.502Z,8.57
2023-04-13T07:27:45.800Z,8.49
2023-04-13T07:32:48.605Z,8.40
2023-04-13T07:37:53.244Z,8.36
2023-04-13T07:42:57.971Z,8.81
2023-04-13T07:48:03.930Z,9.00
2023-04-13T07:53:07.317Z,8.92
2023-04-13T07:58:10.194Z,8.58
2023-04-13T08:03:13.971Z,9.20
2023-04-13T08:08:17.122Z,8.94
2023-04-13T08:13:20.068Z,10.07
2023-04-13T08:18:30.010Z,9.82
2023-04-13T08:23:33.022Z,9.18
2023-04-13T08:28:36.059Z,10.63
2023-04-13T08:33:39.009Z,10.82
2023-04-13T08:38:42.181Z,10.02
2023-04-13T08:43:50.268Z,9.91
2023-04-13T08:48:59.196Z,9.21
2023-04-13T08:54:16.507Z,9.06
2023-04-13T08:59:21.509Z,9.02
2023-04-13T09:04:31.058Z,8.88
2023-04-13T09:09:38.386Z,9.61
2023-04-13T09:14:42.463Z,10.60
2023-04-13T09:19:45.225Z,9.77
2023-04-13T09:24:49.204Z,11.06
2023-04-13T09:29:53.585Z,11.98
2023-04-13T09:35:01.713Z,11.97
2023-04-13T09:40:19.061Z,11.65
2023-04-13T09:45:21.951Z,10.83
2023-04-13T09:50:29.103Z,10.57
2023-04-13T09:55:34.392Z,10.57
2023-04-13T10:00:39.094Z,10.45
2023-04-13T10:05:55.304Z,10.17
2023-04-13T10:11:02.469Z,10.33
2023-04-13T10:16:23.050Z,10.60
2023-04-13T10:21:29.335Z,10.60
2023-04-13T10:26:33.415Z,10.93
2023-04-13T10:31:39.859Z,11.05
2023-04-13T10:36:44.298Z,11.12
2023-04-13T10:41:47.060Z,10.85
2023-04-13T10:46:52.638Z,10.80
2023-04-13T10:51:55.370Z,10.64
2023-04-13T10:57:03.519Z,10.92
2023-04-13T11:02:10.358Z,11.19
2023-04-13T11:07:15.429Z,10.92
2023-04-13T11:12:21.669Z,10.59
2023-04-13T11:17:24.365Z,10.86
2023-04-13T11:22:29.031Z,10.92
2023-04-13T11:27:31.931Z,11.13
2023-04-13T11:32:41.860Z,11.88
2023-04-13T11:37:53.255Z,10.84
2023-04-13T11:42:58.841Z,10.33
2023-04-13T11:48:06.342Z,11.04
2023-04-13T11:53:09.704Z,16.74
2023-04-13T11:58:18.889Z,15.46
2023-04-13T12:08:28.114Z,15.47
2023-04-13T12:13:48.545Z,12.63
2023-04-13T12:19:10.611Z,11.23
2023-04-13T12:24:16.331Z,11.58
2023-04-13T12:29:22.334Z,13.02
2023-04-13T12:34:25.205Z,16.31
2023-04-13T12:39:28.142Z,13.73
2023-04-13T12:44:33.121Z,13.51
2023-04-13T12:49:36.665Z,11.99
2023-04-13T12:54:39.286Z,12.20
2023-04-13T12:59:42.138Z,12.46
2023-04-13T13:04:44.980Z,12.64
2023-04-13T13:09:47.684Z,12.99
2023-04-13T13:14:50.301Z,13.03
2023-04-13T13:19:53.199Z,12.78
2023-04-13T13:24:55.789Z,11.72
2023-04-13T13:29:58.616Z,12.08
2023-04-13T13:35:01.669Z,12.51
2023-04-13T13:40:13.221Z,13.56
2023-04-13T13:45:16.245Z,13.14
2023-04-13T13:50:19.093Z,12.89
2023-04-13T13:55:23.616Z,12.61
2023-04-13T14:00:27.362Z,12.29
2023-04-13T14:05:30.091Z,12.30
2023-04-13T14:10:32.824Z,12.57
2023-04-13T14:15:35.631Z,12.94
2023-04-13T14:20:39.575Z,13.15
2023-04-13T14:25:42.981Z,13.45
2023-04-13T14:30:46.236Z,13.36
2023-04-13T14:35:49.080Z,13.27
2023-04-13T14:40:52.095Z,13.28
2023-04-13T14:45:55.342Z,13.31
2023-04-13T14:50:58.181Z,13.47
2023-04-13T14:56:01.121Z,13.24
2023-04-13T15:01:04.909Z,12.15
2023-04-13T15:06:08.603Z,11.64
2023-04-13T15:11:15.029Z,11.05
2023-04-13T15:16:18.810Z,10.59
2023-04-13T15:21:22.387Z,10.96
2023-04-13T15:26:25.162Z,10.84
2023-04-13T15:31:27.791Z,10.83
2023-04-13T15:36:30.962Z,10.92
2023-04-13T15:41:33.512Z,11.34
2023-04-13T15:46:37.402Z,11.52
2023-04-13T15:51:40.247Z,11.53
2023-04-13T15:56:44.592Z,11.75
2023-04-13T16:01:49.371Z,11.97
2023-04-13T16:07:04.886Z,11.89
2023-04-13T16:12:17.883Z,12.12
2023-04-13T16:17:31.369Z,11.98
2023-04-13T16:22:35.622Z,11.75
2023-04-13T16:27:40.182Z,11.39
2023-04-13T16:32:46.995Z,10.87
2023-04-13T16:37:52.224Z,10.69
2023-04-13T16:42:54.772Z,10.09
2023-04-13T16:47:57.441Z,10.41
2023-04-13T16:53:00.191Z,10.58
2023-04-13T16:58:02.861Z,10.32
2023-04-13T17:03:05.659Z,10.41
2023-04-13T17:08:08.883Z,10.43
2023-04-13T17:13:11.474Z,10.57
2023-04-13T17:18:15.645Z,10.96
2023-04-13T17:23:18.324Z,11.21
2023-04-13T17:28:23.395Z,11.24
2023-04-13T17:33:28.307Z,11.27
2023-04-13T17:38:31.049Z,11.18
2023-04-13T17:43:33.844Z,11.39
2023-04-13T17:48:36.637Z,11.42
2023-04-13T17:53:39.349Z,11.48
2023-04-13T17:58:42.308Z,11.43
2023-04-13T18:03:45.259Z,11.46
2023-04-13T18:08:48.135Z,11.34
2023-04-13T18:13:50.970Z,11.30
2023-04-13T18:18:53.778Z,11.14
2023-04-13T18:23:57.138Z,10.76
2023-04-13T18:29:00.048Z,10.46
2023-04-13T18:34:02.688Z,9.86
2023-04-13T18:39:05.441Z,9.28
2023-04-13T18:44:08.230Z,9.28
2023-04-13T18:49:10.939Z,9.68
2023-04-13T18:54:13.696Z,9.58
2023-04-13T18:59:16.585Z,9.34
2023-04-13T19:04:19.449Z,8.99
2023-04-13T19:09:22.144Z,8.95
2023-04-13T19:14:24.722Z,8.90
2023-04-13T19:19:27.617Z,8.85
2023-04-13T19:24:30.509Z,8.93
2023-04-13T19:29:34.360Z,9.12
2023-04-13T19:34:37.102Z,9.46
2023-04-13T19:39:39.842Z,9.36
2023-04-13T19:44:42.623Z,9.26
2023-04-13T19:49:45.776Z,9.34
2023-04-13T19:54:48.370Z,9.13
2023-04-13T19:59:51.536Z,8.89
2023-04-13T20:04:54.855Z,9.12
2023-04-13T20:10:00.168Z,9.27
2023-04-13T20:15:03.958Z,9.07
2023-04-13T20:20:07.576Z,8.36
2023-04-13T20:25:11.332Z,8.69
2023-04-13T20:30:14.133Z,8.91
2023-04-13T20:35:17.217Z,9.32
2023-04-13T20:40:27.004Z,9.53
2023-04-13T20:45:30.248Z,9.48
2023-04-13T20:50:33.942Z,9.36
2023-04-13T20:55:37.255Z,9.43
2023-04-13T21:00:41.274Z,9.40
2023-04-13T21:05:43.937Z,9.36
2023-04-13T21:10:47.144Z,9.40
2023-04-13T21:15:49.770Z,9.41
2023-04-13T21:20:52.560Z,9.47
2023-04-13T21:25:55.138Z,9.49
2023-04-13T21:30:57.809Z,9.38
2023-04-13T21:36:51.313Z,9.48
2023-04-13T21:41:23.168Z,9.62
2023-04-13T21:46:26.230Z,9.71
2023-04-13T21:51:29.045Z,9.44
2023-04-13T21:56:32.495Z,9.47
2023-04-13T22:01:35.161Z,9.49
2023-04-13T22:06:37.738Z,9.56
2023-04-13T22:11:40.914Z,8.98
2023-04-13T22:16:44.005Z,8.73
2023-04-13T22:21:46.840Z,8.73
2023-04-13T22:26:49.858Z,8.92
2023-04-13T22:31:52.480Z,9.41
2023-04-13T22:36:55.461Z,9.61
2023-04-13T22:41:59.013Z,9.68
2023-04-13T22:47:02.860Z,9.80
2023-04-13T22:52:06.502Z,9.73
2023-04-13T22:57:09.031Z,9.57
2023-04-13T23:02:12.197Z,9.68
2023-04-13T23:07:14.908Z,9.79
2023-04-13T23:12:17.440Z,9.82
2023-04-13T23:17:20.182Z,9.86
2023-04-13T23:22:22.966Z,9.96
2023-04-13T23:27:26.127Z,10.07
2023-04-13T23:32:28.677Z,10.07
2023-04-13T23:37:31.408Z,10.13
2023-04-13T23:42:34.213Z,10.15
2023-04-13T23:47:36.775Z,10.26
2023-04-13T23:52:39.350Z,10.28
2023-04-13T23:57:42.155Z,10.34
